Airfield :
LOGIN :

Register | Disclaimer

   EN    FR    IT 

 










Legend :    VFR   Marginal VFR   IFR   Intensive IFR   Very Intensive IFR
Visi :
Ceiling :
>= 8 km
>= 3000ft
5 to 8 km
1000 to 3000 ft
1500m to 5 km
500 to 1000 ft
800 to 1500m
200 to 500 ft
< 800m
< 200 ft
Symbols :   Thunderstorms  Fog  Heavy snow  Heavy precipitations  Wind > 20 kt
SIGMETs :     Misc.  Thunderstorms  Icing  Turbulence  Mountain Waves  Volcanic Ashes







- Airport Elevation : 1106 ft
- Download approach charts


LFSO - Nancy / Ochey

CURRENT METAR :
  • 260730Z AUTO 23008KT 9999 SCT011 BKN031 BKN044 08/06 Q1015 TEMPO BKN011

EXPIRED METARs :
  • 260700Z AUTO 21009KT 9999 FEW010 SCT031 OVC120 08/07 Q1014
  • 260630Z AUTO 21011KT 9999 -RA FEW047 OVC096 07/06 Q1014
  • 260600Z AUTO 18009KT 9999 SCT031 BKN052 BKN070 07/06 Q1014
  • 260530Z AUTO 18007KT 9999 FEW008 BKN029 BKN036 07/06 Q1014
  • 260500Z AUTO 20007KT 9999 FEW017 SCT026 BKN033 07/06 Q1012

TAF AMD TAF LFSO
Valid from the 26 at 05:00 until the 27 at 03:00 UTC


260515Z 2605/2703 20010KT 9999 BKN020
TEMPO 2605/2609 BKN011
PROB40
TEMPO 2613/2618 SHRA SCT040CB
No reported NOTAMs for that airfield.



MET'MAP, your aeronautical weather chart ! - Copyright ORBIFLY December 2007 - Disclaimer

ORBIFLY MET'MAP TEAM :

Programming & Development : Alexandra Zaïnal
Concept & Development : Baudouin d'Aumeries
Co-Development & Prog : Marc-Olivier Méhu
Technical & hardware support : Manuel Goepfert

Contact : metmap@orbifly.com




SOURCES & CREDITS :

   NOAA